createdAt,value
2023-03-07T00:01:25.896Z,-10.37
2023-03-07T00:03:53.796Z,-10.45
2023-03-07T00:06:21.647Z,-10.50
2023-03-07T00:08:51.371Z,-10.49
2023-03-07T00:11:19.641Z,-10.51
2023-03-07T00:13:47.775Z,-10.55
2023-03-07T00:16:18.085Z,-10.58
2023-03-07T00:18:47.871Z,-10.68
2023-03-07T00:21:17.139Z,-10.70
2023-03-07T00:23:46.080Z,-10.73
2023-03-07T00:26:16.465Z,-10.78
2023-03-07T00:28:46.538Z,-10.78
2023-03-07T00:31:14.471Z,-10.82
2023-03-07T00:33:42.462Z,-10.90
2023-03-07T00:36:15.468Z,-10.96
2023-03-07T00:38:44.003Z,-10.98
2023-03-07T00:41:14.296Z,-10.92
2023-03-07T00:43:42.799Z,-10.93
2023-03-07T00:46:11.174Z,-10.98
2023-03-07T00:48:40.729Z,-11.00
2023-03-07T00:51:11.439Z,-11.04
2023-03-07T00:53:41.518Z,-11.12
2023-03-07T00:56:14.867Z,-11.15
2023-03-07T00:58:42.757Z,-11.18
2023-03-07T01:01:12.861Z,-11.16
2023-03-07T01:03:40.837Z,-11.23
2023-03-07T01:06:11.342Z,-11.24
2023-03-07T01:08:40.479Z,-11.24
2023-03-07T01:11:08.793Z,-11.27
2023-03-07T01:13:37.127Z,-11.30
2023-03-07T01:16:09.424Z,-11.33
2023-03-07T01:18:37.311Z,-11.40
2023-03-07T01:21:12.795Z,-11.44
2023-03-07T01:23:41.887Z,-11.47
2023-03-07T01:26:14.607Z,-11.50
2023-03-07T01:28:42.797Z,-11.51
2023-03-07T01:31:11.094Z,-11.51
2023-03-07T01:33:39.372Z,-11.63
2023-03-07T01:36:17.616Z,-11.55
2023-03-07T01:38:46.883Z,-11.59
2023-03-07T01:41:15.152Z,-11.51
2023-03-07T01:43:43.241Z,-11.58
2023-03-07T01:46:29.238Z,-11.59
2023-03-07T01:49:01.181Z,-11.66
2023-03-07T01:51:30.198Z,-11.68
2023-03-07T01:54:00.561Z,-11.68
2023-03-07T01:56:28.936Z,-11.72
2023-03-07T01:58:57.137Z,-11.67
2023-03-07T02:01:27.240Z,-11.68
2023-03-07T02:03:58.598Z,-11.68
2023-03-07T02:06:28.686Z,-11.74
2023-03-07T02:08:57.836Z,-11.71
2023-03-07T02:11:27.959Z,-11.90
2023-03-07T02:13:55.869Z,-11.82
2023-03-07T02:16:23.836Z,-11.86
2023-03-07T02:18:51.902Z,-11.97
2023-03-07T02:21:34.420Z,-11.99
2023-03-07T02:24:09.715Z,-12.01
2023-03-07T02:26:44.774Z,-12.06
2023-03-07T02:29:20.930Z,-12.11
2023-03-07T02:31:54.916Z,-12.06
2023-03-07T02:34:25.549Z,-12.09
2023-03-07T02:36:58.448Z,-12.10
2023-03-07T02:39:30.354Z,-12.08
2023-03-07T02:42:02.074Z,-12.11
2023-03-07T02:44:29.854Z,-12.13
2023-03-07T02:46:57.633Z,-12.20
2023-03-07T02:49:25.520Z,-12.18
2023-03-07T02:51:57.528Z,-12.22
2023-03-07T02:54:26.255Z,-12.23
2023-03-07T02:56:54.141Z,-12.23
2023-03-07T02:59:23.425Z,-12.20
2023-03-07T03:01:51.319Z,-12.21
2023-03-07T03:04:19.262Z,-12.21
2023-03-07T03:06:47.355Z,-12.20
2023-03-07T03:09:15.136Z,-12.20
2023-03-07T03:11:43.874Z,-12.24
2023-03-07T03:14:11.724Z,-12.29
2023-03-07T03:16:41.384Z,-12.35
2023-03-07T03:19:09.363Z,-12.54
2023-03-07T03:21:37.172Z,-12.35
2023-03-07T03:24:08.919Z,-12.35
2023-03-07T03:26:37.368Z,-12.41
2023-03-07T03:29:06.520Z,-12.44
2023-03-07T03:31:35.086Z,-12.50
2023-03-07T03:34:05.645Z,-12.53
2023-03-07T03:36:33.870Z,-12.54
2023-03-07T03:39:01.867Z,-12.52
2023-03-07T03:41:29.659Z,-12.51
2023-03-07T03:43:57.854Z,-12.49
2023-03-07T03:46:25.683Z,-12.52
2023-03-07T03:48:54.427Z,-12.54
2023-03-07T03:51:25.010Z,-12.51
2023-03-07T03:53:52.973Z,-12.54
2023-03-07T03:56:23.805Z,-12.58
2023-03-07T03:58:53.151Z,-12.60
2023-03-07T04:01:22.560Z,-12.66
2023-03-07T04:03:52.288Z,-12.71
2023-03-07T04:06:22.436Z,-12.67
2023-03-07T04:08:52.619Z,-12.66
2023-03-07T04:11:20.674Z,-12.69
2023-03-07T04:13:48.748Z,-12.68
2023-03-07T04:16:17.437Z,-12.72
2023-03-07T04:18:45.589Z,-12.76
2023-03-07T04:21:14.040Z,-12.77
2023-03-07T04:23:42.053Z,-12.77
2023-03-07T04:26:12.264Z,-12.77
2023-03-07T04:28:44.804Z,-12.83
2023-03-07T04:31:14.386Z,-12.85
2023-03-07T04:33:43.007Z,-12.86
2023-03-07T04:36:11.757Z,-12.89
2023-03-07T04:38:40.604Z,-12.85
2023-03-07T04:41:09.209Z,-12.85
2023-03-07T04:43:38.338Z,-12.87
2023-03-07T04:46:08.895Z,-12.90
2023-03-07T04:48:36.798Z,-12.99
2023-03-07T04:51:05.219Z,-12.97
2023-03-07T04:53:33.180Z,-12.97
2023-03-07T04:56:01.651Z,-12.94
2023-03-07T04:58:29.832Z,-12.96
2023-03-07T05:00:59.529Z,-12.98
2023-03-07T05:03:28.340Z,-12.99
2023-03-07T05:05:56.791Z,-12.99
2023-03-07T05:08:24.632Z,-13.02
2023-03-07T05:10:52.365Z,-13.03
2023-03-07T05:13:20.345Z,-13.02
2023-03-07T05:15:52.564Z,-13.03
2023-03-07T05:18:22.535Z,-13.07
2023-03-07T05:20:51.577Z,-13.05
2023-03-07T05:23:20.544Z,-13.09
2023-03-07T05:25:48.296Z,-13.11
2023-03-07T05:28:17.288Z,-13.08
2023-03-07T05:30:45.533Z,-13.07
2023-03-07T05:33:15.097Z,-13.00
2023-03-07T05:35:44.411Z,-12.99
2023-03-07T05:38:12.341Z,-13.00
2023-03-07T05:40:40.206Z,-12.99
2023-03-07T05:43:08.075Z,-12.99
2023-03-07T05:45:35.886Z,-12.96
2023-03-07T05:48:03.704Z,-12.97
2023-03-07T05:50:32.018Z,-12.97
2023-03-07T05:53:01.470Z,-12.93
2023-03-07T05:55:29.907Z,-12.88
2023-03-07T05:57:57.772Z,-12.83
2023-03-07T06:00:25.831Z,-12.79
2023-03-07T06:02:53.681Z,-12.71
2023-03-07T06:05:22.798Z,-12.61
2023-03-07T06:07:51.632Z,-12.34
2023-03-07T06:10:21.146Z,-11.98
2023-03-07T06:12:51.117Z,-11.69
2023-03-07T06:15:19.200Z,-11.40
2023-03-07T06:17:47.007Z,-11.22
2023-03-07T06:20:16.020Z,-11.12
2023-03-07T06:22:43.793Z,-11.04
2023-03-07T06:25:11.594Z,-10.99
2023-03-07T06:27:41.204Z,-10.97
2023-03-07T06:30:10.190Z,-10.82
2023-03-07T06:32:38.102Z,-10.66
2023-03-07T06:35:06.674Z,-10.30
2023-03-07T06:37:34.472Z,-10.00
2023-03-07T06:40:06.144Z,-9.92
2023-03-07T06:42:33.884Z,-9.98
2023-03-07T06:45:03.128Z,-10.06
2023-03-07T06:47:30.952Z,-10.08
2023-03-07T06:49:58.964Z,-10.04
2023-03-07T06:52:26.822Z,-10.01
2023-03-07T06:54:54.614Z,-9.98
2023-03-07T06:57:22.347Z,-9.95
2023-03-07T06:59:50.197Z,-9.85
2023-03-07T07:02:19.483Z,-9.75
2023-03-07T07:04:47.254Z,-9.64
2023-03-07T07:07:15.017Z,-9.44
2023-03-07T07:09:42.754Z,-9.07
2023-03-07T07:12:10.633Z,-8.61
2023-03-07T07:14:38.400Z,-8.12
2023-03-07T07:17:06.242Z,-7.53
2023-03-07T07:19:35.916Z,-6.83
2023-03-07T07:22:04.206Z,-6.11
2023-03-07T07:24:31.928Z,-5.24
2023-03-07T07:26:59.655Z,-4.39
2023-03-07T07:29:27.572Z,-3.53
2023-03-07T07:31:55.455Z,-2.37
2023-03-07T07:34:23.298Z,-1.40
2023-03-07T07:36:53.185Z,-0.74
2023-03-07T07:39:21.845Z,-0.61
2023-03-07T07:41:49.622Z,-0.56
2023-03-07T07:44:17.456Z,0.10
2023-03-07T07:49:37.771Z,1.07
2023-03-07T07:52:07.217Z,1.55
2023-03-07T07:54:34.988Z,2.20
2023-03-07T07:57:03.022Z,2.33
2023-03-07T07:59:31.805Z,2.54
2023-03-07T08:01:59.583Z,2.40
2023-03-07T08:04:27.554Z,2.26
2023-03-07T08:06:55.321Z,1.68
2023-03-07T08:09:24.466Z,1.19
2023-03-07T08:11:52.223Z,1.32
2023-03-07T08:14:20.093Z,0.97
2023-03-07T08:16:47.906Z,0.65
2023-03-07T08:19:16.669Z,0.60
2023-03-07T08:21:44.510Z,1.07
2023-03-07T08:24:12.322Z,0.81
2023-03-07T08:26:41.525Z,1.14
2023-03-07T08:29:09.275Z,1.80
2023-03-07T08:31:37.101Z,1.67
2023-03-07T08:34:04.916Z,2.12
2023-03-07T08:36:32.743Z,1.95
2023-03-07T08:39:00.582Z,2.42
2023-03-07T08:41:28.984Z,2.64
2023-03-07T08:43:58.108Z,3.23
2023-03-07T08:46:26.074Z,3.46
2023-03-07T08:48:53.989Z,3.26
2023-03-07T08:51:22.062Z,3.34
2023-03-07T08:53:49.951Z,3.12
2023-03-07T08:56:19.156Z,2.27
2023-03-07T08:58:47.283Z,1.39
2023-03-07T09:01:16.408Z,1.25
2023-03-07T09:03:44.775Z,1.15
2023-03-07T09:06:18.835Z,0.90
2023-03-07T09:08:47.405Z,1.33
2023-03-07T09:11:15.493Z,1.46
2023-03-07T09:13:52.048Z,1.42
2023-03-07T09:16:22.902Z,1.44
2023-03-07T09:18:51.514Z,1.60
2023-03-07T09:21:19.375Z,1.91
2023-03-07T09:23:47.226Z,1.82
2023-03-07T09:26:15.023Z,1.62
2023-03-07T09:28:43.014Z,1.95
2023-03-07T09:31:12.279Z,1.58
2023-03-07T09:33:41.555Z,1.68
2023-03-07T09:36:12.244Z,1.78
2023-03-07T09:38:40.537Z,2.13
2023-03-07T09:41:19.801Z,2.13
2023-03-07T09:43:55.826Z,2.46
2023-03-07T09:46:38.713Z,2.24
2023-03-07T09:49:18.543Z,2.57
2023-03-07T09:51:49.769Z,2.96
2023-03-07T09:54:20.139Z,3.51
2023-03-07T09:56:50.933Z,4.07
2023-03-07T09:59:23.971Z,3.53
2023-03-07T10:01:56.555Z,4.07
2023-03-07T10:04:33.367Z,3.84
2023-03-07T10:07:04.976Z,4.06
2023-03-07T10:09:32.916Z,3.62
2023-03-07T10:12:33.199Z,4.14
2023-03-07T10:15:14.522Z,3.80
2023-03-07T10:18:01.887Z,3.70
2023-03-07T10:20:42.541Z,3.05
2023-03-07T10:23:29.041Z,2.68
2023-03-07T10:26:04.777Z,2.48
2023-03-07T10:28:35.275Z,2.85
2023-03-07T10:31:15.919Z,2.65
2023-03-07T10:33:46.976Z,2.66
2023-03-07T10:36:20.867Z,2.43
2023-03-07T10:38:59.016Z,2.38
2023-03-07T10:41:27.145Z,2.62
2023-03-07T10:43:56.422Z,2.93
2023-03-07T10:46:27.829Z,2.11
2023-03-07T10:49:00.433Z,2.17
2023-03-07T10:51:44.683Z,2.48
2023-03-07T10:54:16.343Z,2.32
2023-03-07T10:57:04.048Z,2.35
2023-03-07T10:59:32.242Z,2.31
2023-03-07T11:02:02.030Z,1.70
2023-03-07T11:04:43.375Z,1.68
2023-03-07T11:07:28.144Z,1.93
2023-03-07T11:09:57.075Z,1.98
2023-03-07T11:12:27.287Z,2.36
2023-03-07T11:14:58.143Z,2.44
2023-03-07T11:17:28.541Z,2.29
2023-03-07T11:19:57.344Z,1.82
2023-03-07T11:22:29.431Z,1.80
2023-03-07T11:25:03.545Z,2.09
2023-03-07T11:27:39.282Z,2.23
2023-03-07T11:30:19.309Z,2.20
2023-03-07T11:32:58.530Z,1.90
2023-03-07T11:35:36.061Z,2.10
2023-03-07T11:38:13.255Z,2.30
2023-03-07T11:40:56.597Z,2.02
2023-03-07T11:43:38.163Z,2.13
2023-03-07T11:46:11.665Z,2.13
2023-03-07T11:48:53.428Z,1.82
2023-03-07T11:51:37.936Z,1.90
2023-03-07T11:54:20.553Z,1.72
2023-03-07T11:56:52.995Z,1.88
2023-03-07T12:00:04.596Z,2.06
2023-03-07T12:02:52.952Z,2.21
2023-03-07T12:05:43.118Z,1.88
2023-03-07T12:08:38.726Z,1.53
2023-03-07T12:11:20.710Z,1.49
2023-03-07T12:13:59.882Z,1.71
2023-03-07T12:16:39.504Z,1.60
2023-03-07T12:19:53.601Z,1.33
2023-03-07T12:22:36.406Z,1.33
2023-03-07T12:25:24.722Z,1.60
2023-03-07T12:28:04.310Z,1.53
2023-03-07T12:30:44.652Z,1.44
2023-03-07T12:33:21.316Z,1.34
2023-03-07T12:35:54.619Z,1.32
2023-03-07T12:38:32.316Z,1.13
2023-03-07T12:41:04.935Z,1.29
2023-03-07T12:43:37.930Z,1.20
2023-03-07T12:46:16.756Z,1.16
2023-03-07T12:48:49.515Z,1.09
2023-03-07T12:51:25.153Z,0.84
2023-03-07T12:53:58.847Z,0.20
2023-03-07T12:56:32.346Z,0.52
2023-03-07T12:59:05.049Z,0.52
2023-03-07T13:01:38.233Z,0.65
2023-03-07T13:04:14.448Z,0.53
2023-03-07T13:06:44.793Z,0.51
2023-03-07T13:09:21.126Z,0.59
2023-03-07T13:12:27.099Z,0.43
2023-03-07T13:14:57.960Z,0.30
2023-03-07T13:17:58.702Z,0.33
2023-03-07T13:20:39.475Z,0.27
2023-03-07T13:23:26.821Z,0.18
2023-03-07T13:26:00.416Z,0.21
2023-03-07T13:28:51.303Z,0.22
2023-03-07T13:31:42.951Z,-0.18
2023-03-07T13:34:51.281Z,0.02
2023-03-07T13:37:50.900Z,-0.06
2023-03-07T13:40:52.840Z,-0.07
2023-03-07T13:43:59.725Z,-0.02
2023-03-07T13:46:55.756Z,-0.12
2023-03-07T13:49:46.557Z,0.05
2023-03-07T13:52:37.729Z,-0.13
2023-03-07T13:55:28.679Z,-0.17
2023-03-07T13:58:01.314Z,-0.14
2023-03-07T14:00:34.669Z,-0.19
2023-03-07T14:03:04.394Z,-0.22
2023-03-07T14:05:34.533Z,-0.27
2023-03-07T14:08:03.943Z,-0.38
2023-03-07T14:10:32.765Z,-0.46
2023-03-07T14:13:40.695Z,-0.50
2023-03-07T14:16:33.953Z,-0.58
2023-03-07T14:19:28.115Z,-0.63
2023-03-07T14:22:01.350Z,-0.53
2023-03-07T14:24:44.138Z,-0.57
2023-03-07T14:27:14.887Z,-0.62
2023-03-07T14:29:50.473Z,-0.61
2023-03-07T14:32:28.787Z,-0.75
2023-03-07T14:34:58.886Z,-0.81
2023-03-07T14:37:29.145Z,-0.84
2023-03-07T14:40:13.041Z,-0.89
2023-03-07T14:42:49.905Z,-0.83
2023-03-07T14:45:24.097Z,-0.83
2023-03-07T14:48:30.507Z,-0.99
2023-03-07T14:51:06.871Z,-0.95
2023-03-07T14:53:35.869Z,-1.02
2023-03-07T14:56:08.814Z,-0.99
2023-03-07T14:58:47.718Z,-1.04
2023-03-07T15:01:18.531Z,-0.96
2023-03-07T15:03:48.588Z,-0.93
2023-03-07T15:06:19.678Z,-1.04
2023-03-07T15:08:49.215Z,-1.09
2023-03-07T15:11:28.141Z,-1.08
2023-03-07T15:13:59.242Z,-1.08
2023-03-07T15:16:31.643Z,-1.19
2023-03-07T15:19:03.612Z,-1.20
2023-03-07T15:21:38.194Z,-1.21
2023-03-07T15:24:06.614Z,-1.37
2023-03-07T15:26:34.564Z,-1.49
2023-03-07T15:29:06.456Z,-1.60
2023-03-07T15:31:50.673Z,-1.61
2023-03-07T15:34:24.956Z,-1.64
2023-03-07T15:36:54.483Z,-1.69
2023-03-07T15:39:34.425Z,-1.77
2023-03-07T15:42:05.588Z,-1.77
2023-03-07T15:44:34.261Z,-1.78
2023-03-07T15:47:06.890Z,-1.82
2023-03-07T15:49:41.906Z,-1.85
2023-03-07T15:52:22.399Z,-1.93
2023-03-07T15:54:52.936Z,-1.84
2023-03-07T15:57:23.059Z,-1.99
2023-03-07T15:59:55.318Z,-1.95
2023-03-07T16:02:47.803Z,-1.91
2023-03-07T16:05:33.288Z,-1.93
2023-03-07T16:08:11.661Z,-2.00
2023-03-07T16:10:45.415Z,-1.98
2023-03-07T16:13:17.365Z,-1.99
2023-03-07T16:15:45.532Z,-2.04
2023-03-07T16:18:24.893Z,-2.11
2023-03-07T16:20:52.695Z,-2.11
2023-03-07T16:23:21.835Z,-2.09
2023-03-07T16:25:49.813Z,-2.08
2023-03-07T16:28:17.690Z,-2.08
2023-03-07T16:30:46.563Z,-2.09
2023-03-07T16:33:15.427Z,-2.12
2023-03-07T16:35:45.297Z,-2.14
2023-03-07T16:38:13.167Z,-2.10
2023-03-07T16:40:44.838Z,-2.20
2023-03-07T16:43:32.518Z,-2.10
2023-03-07T16:46:02.308Z,-2.14
2023-03-07T16:48:30.063Z,-2.10
2023-03-07T16:50:58.125Z,-2.09
2023-03-07T16:53:26.686Z,-2.22
2023-03-07T16:55:57.875Z,-2.07
2023-03-07T16:58:28.987Z,-2.10
2023-03-07T17:00:59.044Z,-2.15
2023-03-07T17:03:27.518Z,-2.19
2023-03-07T17:05:55.352Z,-2.15
2023-03-07T17:08:23.155Z,-2.19
2023-03-07T17:10:50.928Z,-2.26
2023-03-07T17:13:20.146Z,-2.27
2023-03-07T17:15:48.239Z,-2.26
2023-03-07T17:18:16.127Z,-2.37
2023-03-07T17:20:44.377Z,-2.39
2023-03-07T17:23:12.987Z,-2.40
2023-03-07T17:25:40.836Z,-2.47
2023-03-07T17:28:11.748Z,-2.47
2023-03-07T17:30:43.067Z,-2.52
2023-03-07T17:33:15.031Z,-2.47
2023-03-07T17:35:43.333Z,-2.51
2023-03-07T17:38:11.143Z,-2.46
2023-03-07T17:40:39.116Z,-2.44
2023-03-07T17:43:06.963Z,-2.46
2023-03-07T17:45:34.753Z,-2.50
2023-03-07T17:48:04.016Z,-2.46
2023-03-07T17:50:31.789Z,-2.47
2023-03-07T17:52:59.803Z,-2.51
2023-03-07T17:55:28.553Z,-2.46
2023-03-07T17:57:56.441Z,-2.48
2023-03-07T18:00:25.068Z,-2.46
2023-03-07T18:02:53.286Z,-2.46
2023-03-07T18:05:25.905Z,-2.41
2023-03-07T18:07:54.207Z,-2.41
2023-03-07T18:10:22.903Z,-2.40
2023-03-07T18:12:53.477Z,-2.42
2023-03-07T18:15:23.034Z,-2.58
2023-03-07T18:17:51.028Z,-2.43
2023-03-07T18:20:20.456Z,-2.54
2023-03-07T18:22:50.204Z,-2.57
2023-03-07T18:25:19.308Z,-2.42
2023-03-07T18:27:48.884Z,-2.36
2023-03-07T18:30:17.673Z,-2.38
2023-03-07T18:32:49.517Z,-2.36
2023-03-07T18:35:17.420Z,-2.32
2023-03-07T18:37:45.711Z,-2.29
2023-03-07T18:40:15.425Z,-2.30
2023-03-07T18:42:43.564Z,-2.25
2023-03-07T18:45:12.202Z,-2.26
2023-03-07T18:47:40.093Z,-2.26
2023-03-07T18:50:09.418Z,-2.20
2023-03-07T18:52:37.345Z,-2.24
2023-03-07T18:55:05.664Z,-2.27
2023-03-07T18:57:34.847Z,-2.24
2023-03-07T19:00:02.709Z,-2.39
2023-03-07T19:02:30.655Z,-2.26
2023-03-07T19:04:58.467Z,-2.22
2023-03-07T19:07:27.922Z,-2.12
2023-03-07T19:09:55.948Z,-2.10
2023-03-07T19:12:23.921Z,-2.07
2023-03-07T19:14:53.143Z,-2.03
2023-03-07T19:17:20.880Z,-2.01
2023-03-07T19:19:48.841Z,-1.99
2023-03-07T19:22:21.490Z,-1.95
2023-03-07T19:24:49.920Z,-1.95
2023-03-07T19:27:18.294Z,-1.87
2023-03-07T19:29:46.060Z,-1.87
2023-03-07T19:32:18.000Z,-1.83
2023-03-07T19:34:49.044Z,-1.92
2023-03-07T19:37:16.926Z,-1.82
2023-03-07T19:39:44.780Z,-1.81
2023-03-07T19:42:12.565Z,-1.80
2023-03-07T19:44:40.316Z,-1.77
2023-03-07T19:47:08.122Z,-1.74
2023-03-07T19:49:37.311Z,-1.76
2023-03-07T19:52:05.749Z,-1.70
2023-03-07T19:54:33.631Z,-1.69
2023-03-07T19:57:01.459Z,-1.70
2023-03-07T19:59:29.369Z,-1.74
2023-03-07T20:01:57.201Z,-1.73
2023-03-07T20:04:25.082Z,-1.74
2023-03-07T20:06:54.261Z,-1.67
2023-03-07T20:09:23.125Z,-1.62
2023-03-07T20:11:50.968Z,-1.54
2023-03-07T20:14:18.817Z,-1.53
2023-03-07T20:16:46.614Z,-1.57
2023-03-07T20:19:15.269Z,-1.54
2023-03-07T20:21:49.661Z,-1.53
2023-03-07T20:24:19.261Z,-1.57
2023-03-07T20:26:48.056Z,-1.62
2023-03-07T20:29:16.088Z,-1.62
2023-03-07T20:31:44.008Z,-1.60
2023-03-07T20:34:11.994Z,-1.62
2023-03-07T20:36:39.747Z,-1.67
2023-03-07T20:39:09.707Z,-1.65
2023-03-07T20:41:38.811Z,-1.66
2023-03-07T20:44:08.283Z,-1.60
2023-03-07T20:46:38.371Z,-1.66
2023-03-07T20:49:06.636Z,-1.62
2023-03-07T20:51:35.864Z,-1.83
2023-03-07T20:54:05.602Z,-1.68
2023-03-07T20:56:35.422Z,-1.64
2023-03-07T20:59:05.081Z,-1.64
2023-03-07T21:01:34.580Z,-1.67
2023-03-07T21:04:06.191Z,-1.70
2023-03-07T21:06:34.542Z,-1.66
2023-03-07T21:09:06.304Z,-1.70
2023-03-07T21:11:34.086Z,-1.74
2023-03-07T21:14:02.212Z,-1.79
2023-03-07T21:16:31.564Z,-1.75
2023-03-07T21:19:01.624Z,-1.80
2023-03-07T21:21:31.226Z,-1.76
2023-03-07T21:23:59.247Z,-1.70
2023-03-07T21:26:28.440Z,-1.73
2023-03-07T21:28:57.220Z,-1.71
2023-03-07T21:31:32.708Z,-1.80
2023-03-07T21:34:02.143Z,-1.78
2023-03-07T21:36:31.349Z,-1.76
2023-03-07T21:38:59.857Z,-1.82
2023-03-07T21:41:29.955Z,-1.83
2023-03-07T21:43:59.158Z,-1.76
2023-03-07T21:46:27.735Z,-1.78
2023-03-07T21:48:59.554Z,-1.74
2023-03-07T21:51:27.356Z,-1.75
2023-03-07T21:53:55.359Z,-1.74
2023-03-07T21:56:23.906Z,-1.80
2023-03-07T21:58:52.058Z,-1.85
2023-03-07T22:01:21.735Z,-1.81
2023-03-07T22:03:52.373Z,-1.78
2023-03-07T22:06:22.350Z,-1.80
2023-03-07T22:08:50.383Z,-1.76
2023-03-07T22:11:18.261Z,-1.80
2023-03-07T22:13:46.203Z,-1.83
2023-03-07T22:16:16.577Z,-1.81
2023-03-07T22:18:44.470Z,-1.81
2023-03-07T22:21:14.642Z,-1.84
2023-03-07T22:23:44.003Z,-1.85
2023-03-07T22:26:13.008Z,-1.87
2023-03-07T22:28:41.444Z,-1.87
2023-03-07T22:31:10.996Z,-1.82
2023-03-07T22:33:39.502Z,-1.83
2023-03-07T22:36:09.548Z,-1.81
2023-03-07T22:38:37.310Z,-1.79
2023-03-07T22:41:08.834Z,-1.77
2023-03-07T22:43:38.273Z,-1.75
2023-03-07T22:46:07.371Z,-1.76
2023-03-07T22:48:35.886Z,-1.76
2023-03-07T22:51:03.761Z,-1.79
2023-03-07T22:53:33.288Z,-1.78
2023-03-07T22:56:01.662Z,-1.83
2023-03-07T22:58:31.109Z,-1.78
2023-03-07T23:00:58.938Z,-1.85
2023-03-07T23:03:26.719Z,-1.82
2023-03-07T23:05:59.837Z,-1.70
2023-03-07T23:08:27.815Z,-1.74
2023-03-07T23:11:01.294Z,-1.78
2023-03-07T23:13:30.607Z,-1.76
2023-03-07T23:15:58.746Z,-1.65
2023-03-07T23:18:26.893Z,-1.66
2023-03-07T23:20:55.087Z,-1.66
2023-03-07T23:23:22.915Z,-1.66
2023-03-07T23:25:50.888Z,-1.63
2023-03-07T23:28:18.765Z,-1.62
2023-03-07T23:30:48.624Z,-1.62
2023-03-07T23:33:16.508Z,-1.61
2023-03-07T23:35:44.631Z,-1.65
2023-03-07T23:38:14.106Z,-1.63
2023-03-07T23:40:42.383Z,-1.61
2023-03-07T23:43:13.856Z,-1.59
2023-03-07T23:45:42.048Z,-1.56
2023-03-07T23:48:11.720Z,-1.54
2023-03-07T23:50:39.528Z,-1.53
2023-03-07T23:53:07.418Z,-1.54
2023-03-07T23:55:35.352Z,-1.69
2023-03-07T23:58:03.275Z,-1.50
